| Time | Avg. Air Temp | Dew Point | Avg. Rel Humidity | Avg. 2 Min Wind Speed | Max Gust Velocity | MGV Time | MGV Direction | Avg. Spot Wind Velocity |
|---|---|---|---|---|---|---|---|---|
| 2026-09-06 07:20:00 | 3° C | -1° C | 78% | 12 km/h | 18 km/h | 07:19:00 | E | 12 km/h |
| 06:20:00 | 3° C | -1° C | 79% | 11 km/h | 15 km/h | 06:19:00 | E | 11 km/h |
| 05:20:00 | 3° C | -0° C | 78% | 9 km/h | 17 km/h | 05:17:00 | E | 11 km/h |
| 04:20:00 | 3° C | -0° C | 79% | 11 km/h | 16 km/h | 04:18:00 | SE | 11 km/h |
| 03:20:00 | 3° C | -1° C | 77% | 14 km/h | 18 km/h | 03:19:00 | SE | 13 km/h |
| 02:20:00 | 3° C | -0° C | 83% | 11 km/h | 21 km/h | 02:18:00 | SE | 14 km/h |
| 01:20:00 | 2° C | -0° C | 81% | 15 km/h | 19 km/h | 01:16:00 | SE | 16 km/h |
| 00:25:00 | 2° C | 1° C | 90% | 9 km/h | 11 km/h | 00:25:00 | E | 8 km/h |
| 23:25:00 | 2° C | 0° C | 87% | 11 km/h | 13 km/h | 23:25:00 | SE | 11 km/h |
| 22:25:00 | 3° C | -0° C | 80% | 9 km/h | 13 km/h | 22:21:00 | SE | 11 km/h |
| 21:25:00 | 3° C | 0° C | 82% | 7 km/h | 8 km/h | 21:23:00 | 8 km/h | |
| 20:25:00 | 3° C | 1° C | 79% | 8 km/h | 10 km/h | 20:24:00 | E | 7 km/h |
| 19:25:00 | 4° C | -1° C | 72% | 11 km/h | 15 km/h | 19:23:00 | S | 12 km/h |
| 18:25:00 | 4° C | 2° C | 84% | 5 km/h | 9 km/h | 18:21:00 | N | 5 km/h |
| 17:25:00 | 5° C | 2° C | 83% | 0 km/h | 6 km/h | 17:23:00 | NW | 1 km/h |
| 16:25:00 | 7° C | 4° C | 68% | 6 km/h | 18 km/h | 16:21:00 | SW | 10 km/h |
| 15:25:00 | 7° C | 2° C | 68% | 11 km/h | 21 km/h | 15:21:00 | S | 14 km/h |
| 14:25:00 | 5° C | 1° C | 79% | 12 km/h | 21 km/h | 14:24:00 | SE | 12 km/h |
| 13:25:00 | 5° C | 4° C | 90% | 4 km/h | 9 km/h | 13:24:00 | SW | 4 km/h |
| 12:25:00 | 6° C | 4° C | 92% | 2 km/h | 5 km/h | 12:23:00 | NE | 2 km/h |
| 11:25:00 | 4° C | 3° C | 95% | 1 km/h | 5 km/h | 11:23:00 | S | 1 km/h |
| 10:25:00 | 4° C | 4° C | 94% | 0 km/h | 6 km/h | 10:22:00 | NE | 2 km/h |
| 09:25:00 | 3° C | 1° C | 85% | 3 km/h | 15 km/h | 09:22:00 | E | 8 km/h |
| 08:25:00 | 2° C | 1° C | 87% | 3 km/h | 15 km/h | 08:22:00 | NE | 5 km/h |
Subpeak Weather
| Time | Avg. Air Temp | Dew Point | Avg. Rel Humidity | Avg. 2 Min Wind Speed | Max Gust Velocity | MGV Time | MGV Direction | Avg. Spot Wind Velocity |
|---|---|---|---|---|---|---|---|---|
| 2026-09-06 07:20:00 | 3° C | -1° C | 78% | 12 km/h | 18 km/h | 07:19:00 | E | 12 km/h |
| 07:15:00 | 3° C | -0° C | 77% | 14 km/h | 16 km/h | 07:15:00 | E | 13 km/h |
| 07:10:00 | 3° C | -1° C | 78% | 11 km/h | 15 km/h | 07:10:00 | NE | 10 km/h |
| 07:05:00 | 3° C | -1° C | 75% | 8 km/h | 13 km/h | 07:02:00 | E | 8 km/h |
| 07:00:00 | 3° C | -1° C | 73% | 10 km/h | 19 km/h | 06:57:00 | E | 14 km/h |
| 06:55:00 | 3° C | -1° C | 74% | 14 km/h | 18 km/h | 06:55:00 | SE | 12 km/h |
| 06:50:00 | 3° C | -1° C | 74% | 9 km/h | 15 km/h | 06:49:00 | SE | 8 km/h |
| 06:45:00 | 3° C | -1° C | 73% | 9 km/h | 13 km/h | 06:42:00 | E | 10 km/h |
| 06:40:00 | 3° C | -1° C | 75% | 12 km/h | 17 km/h | 06:36:00 | SE | 12 km/h |
| 06:35:00 | 3° C | -0° C | 77% | 7 km/h | 9 km/h | 06:35:00 | E | 7 km/h |
| 06:30:00 | 3° C | -1° C | 76% | 9 km/h | 11 km/h | 06:29:00 | E | 8 km/h |
| 06:25:00 | 3° C | -1° C | 77% | 7 km/h | 12 km/h | 06:25:00 | SE | 7 km/h |
| 06:20:00 | 3° C | -1° C | 79% | 11 km/h | 15 km/h | 06:19:00 | E | 11 km/h |




